createdAt,value
2022-10-18T00:01:04.514Z,100.00
2022-10-18T00:03:33.201Z,100.00
2022-10-18T00:06:01.075Z,100.00
2022-10-18T00:08:29.997Z,100.00
2022-10-18T00:10:57.812Z,100.00
2022-10-18T00:13:26.856Z,100.00
2022-10-18T00:15:59.388Z,100.00
2022-10-18T00:18:28.212Z,100.00
2022-10-18T00:21:01.643Z,100.00
2022-10-18T00:23:31.244Z,100.00
2022-10-18T00:26:18.774Z,100.00
2022-10-18T00:28:50.234Z,100.00
2022-10-18T00:31:20.215Z,100.00
2022-10-18T00:33:52.101Z,100.00
2022-10-18T00:36:20.982Z,100.00
2022-10-18T00:38:49.346Z,100.00
2022-10-18T00:41:24.244Z,100.00
2022-10-18T00:44:04.242Z,100.00
2022-10-18T00:46:41.025Z,100.00
2022-10-18T00:49:25.106Z,100.00
2022-10-18T00:51:59.795Z,100.00
2022-10-18T00:54:31.117Z,100.00
2022-10-18T00:56:59.291Z,100.00
2022-10-18T00:59:27.380Z,100.00
2022-10-18T01:01:54.856Z,100.00
2022-10-18T01:04:22.464Z,100.00
2022-10-18T01:07:41.623Z,100.00
2022-10-18T01:11:03.557Z,100.00
2022-10-18T01:14:17.727Z,100.00
2022-10-18T01:16:59.118Z,100.00
2022-10-18T01:19:47.693Z,100.00
2022-10-18T01:22:31.446Z,100.00
2022-10-18T01:25:27.126Z,100.00
2022-10-18T01:28:15.788Z,100.00
2022-10-18T01:30:55.909Z,100.00
2022-10-18T01:33:49.239Z,100.00
2022-10-18T01:36:30.597Z,100.00
2022-10-18T01:39:05.715Z,100.00
2022-10-18T01:41:37.567Z,100.00
2022-10-18T01:44:11.386Z,100.00
2022-10-18T01:46:41.257Z,100.00
2022-10-18T01:49:08.792Z,100.00
2022-10-18T01:51:36.257Z,100.00
2022-10-18T01:54:03.730Z,100.00
2022-10-18T01:57:12.256Z,100.00
2022-10-18T01:59:54.744Z,100.00
2022-10-18T02:02:39.028Z,100.00
2022-10-18T02:05:33.074Z,100.00
2022-10-18T02:08:27.951Z,100.00
2022-10-18T02:11:05.453Z,100.00
2022-10-18T02:13:59.623Z,100.00
2022-10-18T02:16:40.601Z,100.00
2022-10-18T02:19:40.402Z,100.00
2022-10-18T02:22:11.387Z,100.00
2022-10-18T02:24:48.232Z,100.00
2022-10-18T02:27:15.845Z,100.00
2022-10-18T02:29:45.267Z,100.00
2022-10-18T02:32:27.415Z,100.00
2022-10-18T02:35:06.981Z,100.00
2022-10-18T02:37:39.779Z,100.00
2022-10-18T02:40:10.131Z,100.00
2022-10-18T02:42:44.309Z,100.00
2022-10-18T02:45:13.153Z,100.00
2022-10-18T02:47:40.616Z,100.00
2022-10-18T02:50:09.131Z,100.00
2022-10-18T02:52:36.802Z,100.00
2022-10-18T02:55:04.989Z,100.00
2022-10-18T02:57:32.852Z,100.00
2022-10-18T03:00:00.557Z,100.00
2022-10-18T03:02:27.933Z,100.00
2022-10-18T03:04:55.302Z,100.00
2022-10-18T03:07:22.731Z,100.00
2022-10-18T03:09:50.075Z,100.00
2022-10-18T03:12:17.547Z,100.00
2022-10-18T03:14:44.941Z,100.00
2022-10-18T03:17:12.363Z,100.00
2022-10-18T03:19:39.796Z,100.00
2022-10-18T03:22:07.236Z,100.00
2022-10-18T03:24:34.627Z,100.00
2022-10-18T03:27:02.386Z,100.00
2022-10-18T03:29:29.782Z,100.00
2022-10-18T03:31:57.191Z,100.00
2022-10-18T03:34:24.573Z,100.00
2022-10-18T03:36:51.929Z,100.00
2022-10-18T03:39:19.349Z,100.00
2022-10-18T03:41:46.723Z,100.00
2022-10-18T03:44:14.068Z,100.00
2022-10-18T03:46:41.628Z,100.00
2022-10-18T03:49:08.985Z,100.00
2022-10-18T03:51:36.373Z,100.00
2022-10-18T03:54:04.000Z,100.00
2022-10-18T03:56:31.374Z,100.00
2022-10-18T03:58:58.759Z,100.00
2022-10-18T04:01:26.394Z,100.00
2022-10-18T04:03:53.822Z,100.00
2022-10-18T04:06:21.199Z,100.00
2022-10-18T04:08:48.536Z,100.00
2022-10-18T04:11:15.896Z,100.00
2022-10-18T04:13:43.307Z,100.00
2022-10-18T04:16:10.649Z,100.00
2022-10-18T04:18:38.254Z,100.00
2022-10-18T04:21:05.817Z,100.00
2022-10-18T04:23:36.340Z,100.00
2022-10-18T04:26:07.561Z,100.00
2022-10-18T04:28:39.838Z,100.00
2022-10-18T04:31:07.447Z,100.00
2022-10-18T04:33:35.331Z,100.00
2022-10-18T04:36:02.889Z,100.00
2022-10-18T04:38:30.417Z,100.00
2022-10-18T04:40:57.845Z,100.00
2022-10-18T04:43:25.231Z,100.00
2022-10-18T04:45:52.609Z,100.00
2022-10-18T04:48:20.497Z,100.00
2022-10-18T04:50:50.078Z,100.00
2022-10-18T04:53:19.163Z,100.00
2022-10-18T04:55:49.432Z,100.00
2022-10-18T04:58:18.593Z,100.00
2022-10-18T05:00:47.657Z,100.00
2022-10-18T05:03:15.824Z,100.00
2022-10-18T05:06:00.700Z,100.00
2022-10-18T05:08:30.680Z,100.00
2022-10-18T05:10:58.513Z,100.00
2022-10-18T05:13:26.488Z,100.00
2022-10-18T05:15:53.913Z,100.00
2022-10-18T05:18:21.616Z,100.00
2022-10-18T05:20:48.999Z,100.00
2022-10-18T05:23:16.368Z,100.00
2022-10-18T05:25:44.151Z,100.00
2022-10-18T05:28:38.799Z,100.00
2022-10-18T05:31:07.217Z,100.00
2022-10-18T05:33:34.947Z,100.00
2022-10-18T05:36:02.331Z,100.00
2022-10-18T05:38:32.687Z,100.00
2022-10-18T05:41:04.304Z,100.00
2022-10-18T05:43:31.635Z,100.00
2022-10-18T05:45:58.970Z,100.00
2022-10-18T05:48:26.644Z,100.00
2022-10-18T05:50:54.088Z,100.00
2022-10-18T05:53:37.743Z,100.00
2022-10-18T05:56:07.186Z,100.00
2022-10-18T05:58:35.378Z,100.00
2022-10-18T06:01:05.464Z,100.00
2022-10-18T06:03:34.223Z,100.00
2022-10-18T06:06:08.334Z,100.00
2022-10-18T06:08:37.511Z,100.00
2022-10-18T06:11:14.031Z,100.00
2022-10-18T06:13:47.866Z,100.00
2022-10-18T06:16:18.403Z,100.00
2022-10-18T06:18:55.065Z,100.00
2022-10-18T06:21:25.033Z,100.00
2022-10-18T06:23:57.267Z,100.00
2022-10-18T06:26:26.585Z,100.00
2022-10-18T06:28:54.200Z,100.00
2022-10-18T06:31:21.728Z,100.00
2022-10-18T06:33:49.263Z,100.00
2022-10-18T06:36:24.176Z,100.00
2022-10-18T06:38:51.879Z,100.00
2022-10-18T06:41:19.649Z,100.00
2022-10-18T06:43:53.351Z,100.00
2022-10-18T06:46:24.474Z,100.00
2022-10-18T06:48:52.089Z,100.00
2022-10-18T06:51:20.014Z,100.00
2022-10-18T06:54:05.856Z,100.00
2022-10-18T06:56:35.758Z,100.00
2022-10-18T06:59:04.225Z,100.00
2022-10-18T07:01:32.600Z,100.00
2022-10-18T07:04:00.056Z,100.00
2022-10-18T07:06:27.683Z,100.00
2022-10-18T07:08:55.168Z,100.00
2022-10-18T07:11:26.135Z,100.00
2022-10-18T07:14:00.762Z,100.00
2022-10-18T07:16:28.446Z,100.00
2022-10-18T07:18:55.773Z,100.00
2022-10-18T07:21:25.864Z,100.00
2022-10-18T07:23:54.439Z,100.00
2022-10-18T07:26:32.148Z,100.00
2022-10-18T07:29:09.694Z,100.00
2022-10-18T07:31:40.944Z,100.00
2022-10-18T07:34:12.933Z,100.00
2022-10-18T07:36:40.905Z,100.00
2022-10-18T07:39:09.240Z,100.00
2022-10-18T07:41:37.053Z,100.00
2022-10-18T07:44:04.630Z,100.00
2022-10-18T07:46:32.380Z,100.00
2022-10-18T07:48:59.731Z,100.00
2022-10-18T07:51:28.156Z,100.00
2022-10-18T07:53:55.491Z,100.00
2022-10-18T07:56:23.256Z,100.00
2022-10-18T07:58:54.140Z,100.00
2022-10-18T08:01:24.072Z,100.00
2022-10-18T08:03:52.729Z,100.00
2022-10-18T08:06:22.734Z,100.00
2022-10-18T08:08:50.534Z,100.00
2022-10-18T08:11:22.221Z,100.00
2022-10-18T08:13:50.371Z,100.00
2022-10-18T08:16:26.507Z,100.00
2022-10-18T08:18:57.066Z,100.00
2022-10-18T08:21:24.523Z,100.00
2022-10-18T08:23:53.708Z,100.00
2022-10-18T08:26:23.544Z,100.00
2022-10-18T08:29:10.251Z,100.00
2022-10-18T08:31:37.979Z,100.00
2022-10-18T08:34:05.320Z,100.00
2022-10-18T08:36:33.006Z,100.00
2022-10-18T08:39:00.357Z,100.00
2022-10-18T08:41:36.952Z,100.00
2022-10-18T08:44:24.853Z,100.00
2022-10-18T08:47:02.473Z,100.00
2022-10-18T08:49:46.322Z,100.00
2022-10-18T08:52:35.450Z,100.00
2022-10-18T08:55:15.880Z,100.00
2022-10-18T08:57:43.584Z,100.00
2022-10-18T09:00:20.280Z,100.00
2022-10-18T09:03:07.142Z,100.00
2022-10-18T09:05:52.417Z,100.00
2022-10-18T09:08:46.579Z,100.00
2022-10-18T09:11:42.914Z,100.00
2022-10-18T09:15:03.665Z,100.00
2022-10-18T09:18:30.937Z,100.00
2022-10-18T09:21:22.765Z,100.00
2022-10-18T09:24:05.446Z,100.00
2022-10-18T09:26:49.885Z,100.00
2022-10-18T09:29:51.954Z,100.00
2022-10-18T09:32:37.263Z,100.00
2022-10-18T09:35:18.188Z,100.00
2022-10-18T09:37:47.348Z,100.00
2022-10-18T09:40:29.924Z,100.00
2022-10-18T09:43:08.044Z,100.00
2022-10-18T09:45:41.427Z,100.00
2022-10-18T09:48:28.244Z,100.00
2022-10-18T09:51:12.081Z,100.00
2022-10-18T09:54:15.746Z,100.00
2022-10-18T09:57:09.786Z,100.00
2022-10-18T09:59:43.152Z,100.00
2022-10-18T10:02:22.141Z,100.00
2022-10-18T10:04:51.872Z,100.00
2022-10-18T10:07:28.640Z,100.00
2022-10-18T10:10:07.438Z,100.00
2022-10-18T10:12:38.806Z,100.00
2022-10-18T10:15:28.190Z,100.00
2022-10-18T10:18:17.589Z,100.00
2022-10-18T10:20:53.920Z,100.00
2022-10-18T10:23:44.424Z,100.00
2022-10-18T10:26:28.989Z,100.00
2022-10-18T10:28:56.675Z,100.00
2022-10-18T10:31:29.344Z,100.00
2022-10-18T10:34:03.537Z,100.00
2022-10-18T10:36:33.510Z,100.00
2022-10-18T10:39:18.862Z,100.00
2022-10-18T10:41:56.611Z,100.00
2022-10-18T10:44:29.125Z,99.76
2022-10-18T10:46:57.824Z,99.14
2022-10-18T10:49:47.680Z,97.65
2022-10-18T10:52:29.033Z,97.33
2022-10-18T10:55:17.037Z,95.70
2022-10-18T10:57:52.200Z,95.14
2022-10-18T11:00:43.958Z,92.46
2022-10-18T11:03:28.947Z,91.46
2022-10-18T11:06:00.627Z,91.91
2022-10-18T11:08:40.938Z,90.01
2022-10-18T11:11:33.579Z,90.73
2022-10-18T11:14:26.582Z,90.50
2022-10-18T11:17:22.862Z,90.21
2022-10-18T11:20:11.768Z,88.80
2022-10-18T11:23:01.109Z,89.05
2022-10-18T11:25:48.649Z,89.57
2022-10-18T11:28:34.707Z,88.44
2022-10-18T11:31:17.653Z,87.37
2022-10-18T11:34:28.269Z,87.78
2022-10-18T11:37:42.155Z,86.85
2022-10-18T11:40:40.339Z,86.23
2022-10-18T11:44:02.153Z,86.25
2022-10-18T11:47:28.010Z,86.68
2022-10-18T11:50:26.164Z,85.96
2022-10-18T11:53:27.251Z,85.47
2022-10-18T11:56:36.875Z,85.42
2022-10-18T11:59:32.536Z,84.86
2022-10-18T12:02:45.801Z,84.30
2022-10-18T12:05:30.265Z,84.36
2022-10-18T12:08:35.791Z,82.51
2022-10-18T12:11:15.696Z,82.81
2022-10-18T12:13:57.679Z,83.00
2022-10-18T12:16:50.454Z,82.00
2022-10-18T12:19:33.005Z,80.07
2022-10-18T12:22:35.330Z,81.45
2022-10-18T12:25:04.111Z,82.19
2022-10-18T12:27:46.257Z,81.24
2022-10-18T12:30:57.332Z,80.82
2022-10-18T12:33:36.012Z,80.00
2022-10-18T12:36:21.419Z,79.51
2022-10-18T12:39:03.205Z,79.46
2022-10-18T12:41:36.284Z,79.26
2022-10-18T12:44:18.401Z,79.26
2022-10-18T12:46:49.520Z,79.24
2022-10-18T12:49:42.620Z,78.74
2022-10-18T12:52:28.716Z,78.16
2022-10-18T12:55:26.435Z,78.19
2022-10-18T12:57:53.710Z,78.74
2022-10-18T13:00:30.127Z,77.69
2022-10-18T13:03:12.531Z,78.00
2022-10-18T13:05:54.491Z,77.98
2022-10-18T13:08:31.674Z,77.54
2022-10-18T13:11:01.891Z,77.55
2022-10-18T13:13:40.663Z,76.85
2022-10-18T13:16:31.005Z,76.83
2022-10-18T13:20:25.024Z,75.89
2022-10-18T13:23:25.130Z,76.39
2022-10-18T13:25:58.252Z,75.65
2022-10-18T13:28:48.843Z,75.02
2022-10-18T13:31:28.655Z,74.91
2022-10-18T13:34:17.654Z,75.00
2022-10-18T13:36:56.909Z,75.11
2022-10-18T13:39:25.316Z,75.01
2022-10-18T13:41:58.528Z,75.24
2022-10-18T13:44:40.451Z,74.67
2022-10-18T13:47:07.870Z,74.27
2022-10-18T13:49:59.735Z,73.66
2022-10-18T13:53:00.049Z,71.82
2022-10-18T13:55:50.825Z,71.93
2022-10-18T13:59:14.461Z,71.59
2022-10-18T14:02:42.844Z,71.59
2022-10-18T14:05:25.082Z,71.71
2022-10-18T14:08:08.086Z,71.21
2022-10-18T14:11:03.528Z,70.78
2022-10-18T14:13:45.093Z,71.15
2022-10-18T14:16:34.482Z,70.70
2022-10-18T14:19:30.184Z,70.56
2022-10-18T14:22:11.665Z,69.62
2022-10-18T14:24:46.525Z,69.20
2022-10-18T14:27:26.964Z,69.11
2022-10-18T14:30:08.557Z,69.20
2022-10-18T14:32:36.461Z,70.94
2022-10-18T14:37:54.644Z,69.74
2022-10-18T14:40:34.131Z,69.27
2022-10-18T14:43:14.697Z,69.24
2022-10-18T14:45:42.882Z,68.83
2022-10-18T14:48:17.533Z,68.47
2022-10-18T14:50:49.244Z,68.68
2022-10-18T14:53:25.071Z,68.93
2022-10-18T14:55:56.092Z,69.00
2022-10-18T14:58:23.756Z,69.24
2022-10-18T15:00:51.155Z,68.71
2022-10-18T15:03:19.130Z,68.60
2022-10-18T15:06:00.589Z,68.46
2022-10-18T15:08:42.586Z,68.93
2022-10-18T15:11:14.754Z,68.27
2022-10-18T15:14:14.526Z,68.33
2022-10-18T15:16:42.997Z,68.26
2022-10-18T15:19:16.230Z,68.11
2022-10-18T15:22:27.196Z,68.17
2022-10-18T15:25:20.776Z,68.33
2022-10-18T15:27:53.389Z,67.98
2022-10-18T15:30:40.914Z,67.92
2022-10-18T15:33:21.964Z,68.26
2022-10-18T15:35:51.333Z,68.53
2022-10-18T15:38:32.668Z,69.00
2022-10-18T15:41:00.000Z,69.26
2022-10-18T15:43:27.322Z,69.32
2022-10-18T15:46:05.053Z,69.25
2022-10-18T15:48:45.253Z,69.61
2022-10-18T15:51:48.302Z,70.02
2022-10-18T15:54:19.945Z,70.34
2022-10-18T15:56:47.372Z,70.48
2022-10-18T15:59:25.975Z,70.38
2022-10-18T16:01:54.233Z,70.93
2022-10-18T16:04:31.424Z,70.63
2022-10-18T16:07:00.360Z,71.31
2022-10-18T16:09:29.154Z,71.74
2022-10-18T16:11:58.062Z,71.68
2022-10-18T16:14:26.399Z,71.95
2022-10-18T16:17:00.939Z,72.37
2022-10-18T16:19:29.125Z,72.65
2022-10-18T16:21:56.590Z,72.73
2022-10-18T16:24:24.414Z,73.08
2022-10-18T16:26:53.068Z,73.32
2022-10-18T16:29:28.704Z,73.52
2022-10-18T16:31:58.198Z,73.78
2022-10-18T16:34:27.401Z,74.00
2022-10-18T16:36:55.366Z,74.12
2022-10-18T16:39:23.820Z,74.29
2022-10-18T16:41:51.869Z,74.74
2022-10-18T16:44:19.503Z,74.78
2022-10-18T16:46:51.106Z,75.06
2022-10-18T16:49:25.017Z,75.44
2022-10-18T16:51:54.293Z,75.55
2022-10-18T16:54:23.421Z,75.98
2022-10-18T16:56:51.326Z,76.25
2022-10-18T16:59:26.421Z,76.49
2022-10-18T17:01:53.903Z,76.42
2022-10-18T17:04:21.338Z,77.10
2022-10-18T17:06:49.154Z,77.28
2022-10-18T17:09:16.821Z,77.24
2022-10-18T17:11:45.160Z,77.15
2022-10-18T17:14:12.483Z,77.54
2022-10-18T17:16:39.896Z,77.73
2022-10-18T17:19:11.676Z,77.79
2022-10-18T17:21:39.063Z,78.11
2022-10-18T17:24:06.548Z,78.01
2022-10-18T17:26:36.225Z,78.42
2022-10-18T17:29:08.021Z,78.62
2022-10-18T17:31:35.767Z,78.92
2022-10-18T17:34:04.358Z,78.60
2022-10-18T17:36:33.742Z,79.36
2022-10-18T17:39:01.206Z,79.75
2022-10-18T17:41:28.620Z,80.41
2022-10-18T17:43:56.389Z,80.29
2022-10-18T17:46:23.900Z,80.21
2022-10-18T17:48:51.282Z,80.60
2022-10-18T17:51:18.833Z,80.38
2022-10-18T17:53:46.544Z,80.32
2022-10-18T17:56:15.536Z,81.17
2022-10-18T17:58:43.554Z,81.14
2022-10-18T18:01:13.472Z,81.11
2022-10-18T18:03:41.527Z,81.41
2022-10-18T18:06:45.797Z,81.04
2022-10-18T18:09:16.709Z,80.83
2022-10-18T18:11:47.267Z,81.81
2022-10-18T18:14:16.024Z,82.19
2022-10-18T18:16:46.970Z,82.15
2022-10-18T18:19:17.561Z,82.29
2022-10-18T18:21:45.382Z,82.64
2022-10-18T18:24:13.999Z,82.62
2022-10-18T18:26:41.980Z,83.04
2022-10-18T18:29:12.664Z,83.34
2022-10-18T18:31:43.770Z,83.86
2022-10-18T18:34:11.748Z,83.39
2022-10-18T18:36:39.784Z,84.07
2022-10-18T18:39:09.042Z,83.95
2022-10-18T18:41:37.713Z,84.33
2022-10-18T18:44:06.220Z,84.00
2022-10-18T18:46:38.884Z,84.51
2022-10-18T18:49:07.957Z,84.65
2022-10-18T18:51:40.173Z,84.49
2022-10-18T18:54:10.509Z,84.74
2022-10-18T18:56:38.517Z,85.25
2022-10-18T18:59:07.313Z,85.17
2022-10-18T19:01:37.316Z,85.27
2022-10-18T19:04:07.262Z,85.59
2022-10-18T19:06:38.358Z,85.66
2022-10-18T19:09:18.524Z,85.65
2022-10-18T19:11:48.904Z,85.72
2022-10-18T19:14:16.881Z,85.98
2022-10-18T19:16:53.540Z,85.70
2022-10-18T19:19:24.036Z,85.90
2022-10-18T19:21:55.876Z,86.70
2022-10-18T19:24:25.460Z,85.57
2022-10-18T19:27:08.373Z,85.77
2022-10-18T19:29:39.243Z,86.43
2022-10-18T19:32:12.151Z,86.93
2022-10-18T19:34:40.409Z,86.81
2022-10-18T19:37:09.416Z,86.21
2022-10-18T19:39:37.739Z,87.15
2022-10-18T19:42:17.460Z,87.52
2022-10-18T19:44:48.490Z,87.80
2022-10-18T19:47:15.973Z,87.04
2022-10-18T19:49:43.338Z,87.40
2022-10-18T19:52:12.500Z,87.19
2022-10-18T19:54:39.982Z,87.06
2022-10-18T19:57:07.528Z,88.40
2022-10-18T19:59:35.978Z,87.49
2022-10-18T20:02:04.693Z,87.54
2022-10-18T20:04:34.724Z,87.08
2022-10-18T20:07:03.011Z,87.69
2022-10-18T20:09:30.482Z,89.20
2022-10-18T20:11:57.848Z,87.78
2022-10-18T20:14:25.670Z,87.86
2022-10-18T20:16:53.033Z,89.33
2022-10-18T20:19:20.424Z,89.14
2022-10-18T20:21:47.769Z,88.88
2022-10-18T20:24:22.146Z,89.04
2022-10-18T20:27:42.857Z,90.00
2022-10-18T20:30:56.399Z,89.78
2022-10-18T20:33:56.512Z,89.61
2022-10-18T20:36:25.914Z,89.25
2022-10-18T20:38:53.328Z,89.35
2022-10-18T20:41:48.376Z,90.52
2022-10-18T20:44:19.209Z,89.21
2022-10-18T20:46:46.980Z,89.20
2022-10-18T20:49:16.647Z,90.71
2022-10-18T20:51:44.282Z,89.79
2022-10-18T20:54:12.360Z,90.26
2022-10-18T20:56:39.960Z,90.25
2022-10-18T20:59:09.623Z,89.99
2022-10-18T21:01:39.406Z,90.96
2022-10-18T21:04:10.081Z,91.17
2022-10-18T21:06:41.847Z,91.06
2022-10-18T21:09:12.940Z,90.10
2022-10-18T21:11:43.159Z,89.90
2022-10-18T21:14:21.706Z,90.03
2022-10-18T21:16:51.440Z,90.86
2022-10-18T21:19:25.795Z,90.74
2022-10-18T21:21:57.504Z,91.22
2022-10-18T21:24:26.125Z,91.11
2022-10-18T21:26:54.609Z,90.59
2022-10-18T21:29:24.520Z,91.42
2022-10-18T21:31:59.414Z,91.71
2022-10-18T21:34:26.934Z,90.60
2022-10-18T21:36:54.290Z,91.74
2022-10-18T21:41:55.971Z,91.24
2022-10-18T21:44:23.590Z,91.62
2022-10-18T21:46:51.557Z,92.11
2022-10-18T21:49:19.061Z,91.78
2022-10-18T21:51:46.448Z,92.43
2022-10-18T21:54:16.111Z,92.75
2022-10-18T21:56:44.065Z,92.08
2022-10-18T21:59:14.555Z,92.43
2022-10-18T22:01:43.576Z,92.00
2022-10-18T22:04:24.241Z,92.72
2022-10-18T22:06:52.252Z,92.56
2022-10-18T22:09:21.360Z,92.89
2022-10-18T22:11:53.135Z,92.97
2022-10-18T22:14:21.449Z,91.95
2022-10-18T22:16:48.855Z,92.92
2022-10-18T22:19:16.722Z,92.28
2022-10-18T22:21:44.097Z,92.67
2022-10-18T22:24:11.696Z,92.40
2022-10-18T22:26:42.392Z,93.09
2022-10-18T22:29:17.341Z,93.03
2022-10-18T22:31:52.049Z,93.14
2022-10-18T22:34:29.231Z,92.86
2022-10-18T22:36:57.164Z,93.25
2022-10-18T22:39:24.712Z,92.99
2022-10-18T22:41:55.507Z,93.13
2022-10-18T22:44:23.592Z,93.15
2022-10-18T22:46:50.923Z,93.31
2022-10-18T22:49:18.301Z,93.58
2022-10-18T22:51:45.682Z,93.72
2022-10-18T22:54:13.101Z,93.20
2022-10-18T22:56:40.447Z,93.55
2022-10-18T22:59:07.827Z,93.62
2022-10-18T23:01:35.742Z,93.63
2022-10-18T23:04:03.678Z,93.69
2022-10-18T23:06:35.526Z,93.68
2022-10-18T23:09:05.904Z,93.42
2022-10-18T23:11:35.073Z,93.76
2022-10-18T23:14:05.304Z,93.81
2022-10-18T23:16:33.270Z,93.48
2022-10-18T23:19:00.765Z,94.00
2022-10-18T23:21:29.013Z,93.98
2022-10-18T23:23:57.406Z,93.72
2022-10-18T23:26:27.942Z,93.94
2022-10-18T23:28:56.515Z,93.92
2022-10-18T23:31:31.300Z,94.58
2022-10-18T23:34:04.814Z,94.20
2022-10-18T23:36:33.632Z,94.48
2022-10-18T23:39:03.105Z,94.33
2022-10-18T23:41:30.660Z,94.34
2022-10-18T23:43:58.104Z,94.40
2022-10-18T23:46:25.489Z,95.10
2022-10-18T23:48:52.876Z,94.65
2022-10-18T23:51:20.225Z,94.62
2022-10-18T23:53:48.332Z,94.59
2022-10-18T23:56:16.635Z,94.64
2022-10-18T23:58:45.334Z,94.91
